sensor_id;sensor_type;location;lat;lon;timestamp;temperature;humidity
27306;DHT22;14792;50.886;6.468;2022-12-18T00:01:27;-6.20;99.90
27306;DHT22;14792;50.886;6.468;2022-12-18T00:04:28;-6.20;99.90
27306;DHT22;14792;50.886;6.468;2022-12-18T00:07:29;-6.20;99.90
27306;DHT22;14792;50.886;6.468;2022-12-18T00:10:30;-6.20;99.90
27306;DHT22;14792;50.886;6.468;2022-12-18T00:13:32;-6.30;99.90
27306;DHT22;14792;50.886;6.468;2022-12-18T00:16:33;-6.30;99.90
27306;DHT22;14792;50.886;6.468;2022-12-18T00:19:36;-6.30;99.90
27306;DHT22;14792;50.886;6.468;2022-12-18T00:22:38;-6.20;99.90
27306;DHT22;14792;50.886;6.468;2022-12-18T00:25:40;-6.20;99.90
27306;DHT22;14792;50.886;6.468;2022-12-18T00:28:41;-6.20;99.90
27306;DHT22;14792;50.886;6.468;2022-12-18T00:31:42;-6.30;99.90
27306;DHT22;14792;50.886;6.468;2022-12-18T00:34:44;-6.30;99.90
27306;DHT22;14792;50.886;6.468;2022-12-18T00:37:45;-6.20;99.90
27306;DHT22;14792;50.886;6.468;2022-12-18T00:40:47;-6.20;99.90
27306;DHT22;14792;50.886;6.468;2022-12-18T00:43:48;-6.20;99.90
27306;DHT22;14792;50.886;6.468;2022-12-18T00:46:50;-6.30;99.90
27306;DHT22;14792;50.886;6.468;2022-12-18T00:49:51;-6.30;99.90
27306;DHT22;14792;50.886;6.468;2022-12-18T00:52:53;-6.30;99.90
27306;DHT22;14792;50.886;6.468;2022-12-18T00:55:54;-6.30;99.90
27306;DHT22;14792;50.886;6.468;2022-12-18T00:58:56;-6.40;99.90
27306;DHT22;14792;50.886;6.468;2022-12-18T01:01:57;-6.40;99.90
27306;DHT22;14792;50.886;6.468;2022-12-18T01:04:59;-6.40;99.90
27306;DHT22;14792;50.886;6.468;2022-12-18T01:08:00;-6.40;99.90
27306;DHT22;14792;50.886;6.468;2022-12-18T01:11:07;-6.40;99.90
27306;DHT22;14792;50.886;6.468;2022-12-18T01:14:03;-6.40;99.90
27306;DHT22;14792;50.886;6.468;2022-12-18T01:17:05;-6.40;99.90
27306;DHT22;14792;50.886;6.468;2022-12-18T01:20:07;-6.30;99.90
27306;DHT22;14792;50.886;6.468;2022-12-18T01:23:08;-6.20;99.90
27306;DHT22;14792;50.886;6.468;2022-12-18T01:26:15;-6.20;99.90
27306;DHT22;14792;50.886;6.468;2022-12-18T01:29:16;-6.20;99.90
27306;DHT22;14792;50.886;6.468;2022-12-18T01:32:18;-6.20;99.90
27306;DHT22;14792;50.886;6.468;2022-12-18T01:35:19;-6.20;99.90
27306;DHT22;14792;50.886;6.468;2022-12-18T01:38:21;-6.10;99.90
27306;DHT22;14792;50.886;6.468;2022-12-18T01:41:23;-6.20;99.90
27306;DHT22;14792;50.886;6.468;2022-12-18T01:47:44;-6.30;99.90
27306;DHT22;14792;50.886;6.468;2022-12-18T01:50:45;-6.30;99.90
27306;DHT22;14792;50.886;6.468;2022-12-18T01:53:46;-6.30;99.90
27306;DHT22;14792;50.886;6.468;2022-12-18T01:56:48;-6.30;99.90
27306;DHT22;14792;50.886;6.468;2022-12-18T01:59:50;-6.30;99.90
27306;DHT22;14792;50.886;6.468;2022-12-18T02:02:50;-6.30;99.90
27306;DHT22;14792;50.886;6.468;2022-12-18T02:09:05;-6.30;99.90
27306;DHT22;14792;50.886;6.468;2022-12-18T02:15:56;-6.40;99.90
27306;DHT22;14792;50.886;6.468;2022-12-18T02:18:35;-6.30;99.90
27306;DHT22;14792;50.886;6.468;2022-12-18T02:21:46;-6.30;99.90
27306;DHT22;14792;50.886;6.468;2022-12-18T02:27:53;-6.30;99.90
27306;DHT22;14792;50.886;6.468;2022-12-18T02:30:54;-6.30;99.90
27306;DHT22;14792;50.886;6.468;2022-12-18T02:33:56;-6.30;99.90
27306;DHT22;14792;50.886;6.468;2022-12-18T02:36:57;-6.30;99.90
27306;DHT22;14792;50.886;6.468;2022-12-18T02:39:59;-6.30;99.90
27306;DHT22;14792;50.886;6.468;2022-12-18T02:43:14;-6.30;99.90
27306;DHT22;14792;50.886;6.468;2022-12-18T02:46:25;-6.30;99.90
27306;DHT22;14792;50.886;6.468;2022-12-18T02:53:03;-6.30;99.90
27306;DHT22;14792;50.886;6.468;2022-12-18T02:56:06;-6.30;99.90
27306;DHT22;14792;50.886;6.468;2022-12-18T02:59:07;-6.20;99.90
27306;DHT22;14792;50.886;6.468;2022-12-18T03:02:23;-6.20;99.90
27306;DHT22;14792;50.886;6.468;2022-12-18T03:05:31;-6.20;99.90
27306;DHT22;14792;50.886;6.468;2022-12-18T03:08:23;-6.20;99.90
27306;DHT22;14792;50.886;6.468;2022-12-18T03:11:24;-6.20;99.90
27306;DHT22;14792;50.886;6.468;2022-12-18T03:14:25;-6.20;99.90
27306;DHT22;14792;50.886;6.468;2022-12-18T03:17:27;-6.30;99.90
27306;DHT22;14792;50.886;6.468;2022-12-18T03:20:29;-6.20;99.90
27306;DHT22;14792;50.886;6.468;2022-12-18T03:23:32;-6.20;99.90
27306;DHT22;14792;50.886;6.468;2022-12-18T03:26:31;-6.30;99.90
27306;DHT22;14792;50.886;6.468;2022-12-18T03:29:46;-6.30;99.90
27306;DHT22;14792;50.886;6.468;2022-12-18T03:32:51;-6.30;99.90
27306;DHT22;14792;50.886;6.468;2022-12-18T03:35:50;-6.40;99.90
27306;DHT22;14792;50.886;6.468;2022-12-18T03:38:51;-6.30;99.90
27306;DHT22;14792;50.886;6.468;2022-12-18T03:42:01;-6.30;99.90
27306;DHT22;14792;50.886;6.468;2022-12-18T03:45:13;-6.30;99.90
27306;DHT22;14792;50.886;6.468;2022-12-18T03:48:15;-6.30;99.90
27306;DHT22;14792;50.886;6.468;2022-12-18T03:51:16;-6.30;99.90
27306;DHT22;14792;50.886;6.468;2022-12-18T03:54:15;-6.30;99.90
27306;DHT22;14792;50.886;6.468;2022-12-18T03:57:20;-6.30;99.90
27306;DHT22;14792;50.886;6.468;2022-12-18T04:00:18;-6.30;99.90
27306;DHT22;14792;50.886;6.468;2022-12-18T04:03:21;-6.40;99.90
27306;DHT22;14792;50.886;6.468;2022-12-18T04:06:23;-6.40;99.90
27306;DHT22;14792;50.886;6.468;2022-12-18T04:09:24;-6.50;99.90
27306;DHT22;14792;50.886;6.468;2022-12-18T04:12:26;-6.50;99.90
27306;DHT22;14792;50.886;6.468;2022-12-18T04:15:27;-6.60;99.90
27306;DHT22;14792;50.886;6.468;2022-12-18T04:18:28;-6.50;99.90
27306;DHT22;14792;50.886;6.468;2022-12-18T04:21:30;-6.50;99.90
27306;DHT22;14792;50.886;6.468;2022-12-18T04:24:31;-6.60;99.90
27306;DHT22;14792;50.886;6.468;2022-12-18T04:27:33;-6.60;99.90
27306;DHT22;14792;50.886;6.468;2022-12-18T04:30:34;-6.60;99.90
27306;DHT22;14792;50.886;6.468;2022-12-18T04:33:36;-6.60;99.90
27306;DHT22;14792;50.886;6.468;2022-12-18T04:36:37;-6.60;99.90
27306;DHT22;14792;50.886;6.468;2022-12-18T04:39:39;-6.60;99.90
27306;DHT22;14792;50.886;6.468;2022-12-18T04:42:40;-6.60;99.90
27306;DHT22;14792;50.886;6.468;2022-12-18T04:45:41;-6.60;99.90
27306;DHT22;14792;50.886;6.468;2022-12-18T04:48:44;-6.50;99.90
27306;DHT22;14792;50.886;6.468;2022-12-18T04:51:45;-6.50;99.90
27306;DHT22;14792;50.886;6.468;2022-12-18T04:54:46;-6.50;99.90
27306;DHT22;14792;50.886;6.468;2022-12-18T04:57:47;-6.50;99.90
27306;DHT22;14792;50.886;6.468;2022-12-18T05:00:49;-6.50;99.90
27306;DHT22;14792;50.886;6.468;2022-12-18T05:03:51;-6.50;99.90
27306;DHT22;14792;50.886;6.468;2022-12-18T05:06:51;-6.50;99.90
27306;DHT22;14792;50.886;6.468;2022-12-18T05:09:53;-6.40;99.90
27306;DHT22;14792;50.886;6.468;2022-12-18T05:12:54;-6.50;99.90
27306;DHT22;14792;50.886;6.468;2022-12-18T05:15:59;-6.40;99.90
27306;DHT22;14792;50.886;6.468;2022-12-18T05:19:00;-6.40;99.90
27306;DHT22;14792;50.886;6.468;2022-12-18T05:22:02;-6.40;99.90
27306;DHT22;14792;50.886;6.468;2022-12-18T05:25:03;-6.40;99.90
27306;DHT22;14792;50.886;6.468;2022-12-18T05:28:04;-6.40;99.90
27306;DHT22;14792;50.886;6.468;2022-12-18T05:31:08;-6.40;99.90
27306;DHT22;14792;50.886;6.468;2022-12-18T05:34:10;-6.40;99.90
27306;DHT22;14792;50.886;6.468;2022-12-18T05:37:11;-6.50;99.90
27306;DHT22;14792;50.886;6.468;2022-12-18T05:40:13;-6.50;99.90
27306;DHT22;14792;50.886;6.468;2022-12-18T05:43:14;-6.50;99.90
27306;DHT22;14792;50.886;6.468;2022-12-18T05:46:17;-6.50;99.90
27306;DHT22;14792;50.886;6.468;2022-12-18T05:49:17;-6.50;99.90
27306;DHT22;14792;50.886;6.468;2022-12-18T05:52:18;-6.50;99.90
27306;DHT22;14792;50.886;6.468;2022-12-18T05:55:20;-6.50;99.90
27306;DHT22;14792;50.886;6.468;2022-12-18T05:58:21;-6.40;99.90
27306;DHT22;14792;50.886;6.468;2022-12-18T06:01:25;-6.40;99.90
27306;DHT22;14792;50.886;6.468;2022-12-18T06:04:26;-6.50;99.90
27306;DHT22;14792;50.886;6.468;2022-12-18T06:07:27;-6.40;99.90
27306;DHT22;14792;50.886;6.468;2022-12-18T06:10:29;-6.40;99.90
27306;DHT22;14792;50.886;6.468;2022-12-18T06:13:30;-6.40;99.90
27306;DHT22;14792;50.886;6.468;2022-12-18T06:16:32;-6.40;99.90
27306;DHT22;14792;50.886;6.468;2022-12-18T06:19:33;-6.40;99.90
27306;DHT22;14792;50.886;6.468;2022-12-18T06:22:35;-6.30;99.90
27306;DHT22;14792;50.886;6.468;2022-12-18T06:25:38;-6.40;99.90
27306;DHT22;14792;50.886;6.468;2022-12-18T06:28:39;-6.40;99.90
27306;DHT22;14792;50.886;6.468;2022-12-18T06:31:40;-6.40;99.90
27306;DHT22;14792;50.886;6.468;2022-12-18T06:34:43;-6.30;99.90
27306;DHT22;14792;50.886;6.468;2022-12-18T06:37:45;-6.30;99.90
27306;DHT22;14792;50.886;6.468;2022-12-18T06:40:46;-6.30;99.90
27306;DHT22;14792;50.886;6.468;2022-12-18T06:43:47;-6.20;99.90
27306;DHT22;14792;50.886;6.468;2022-12-18T06:46:49;-6.30;99.90
27306;DHT22;14792;50.886;6.468;2022-12-18T06:49:50;-6.20;99.90
27306;DHT22;14792;50.886;6.468;2022-12-18T06:52:52;-6.20;99.90
27306;DHT22;14792;50.886;6.468;2022-12-18T06:56:03;-6.20;99.90
27306;DHT22;14792;50.886;6.468;2022-12-18T06:58:55;-6.20;99.90
27306;DHT22;14792;50.886;6.468;2022-12-18T07:01:56;-6.20;99.90
27306;DHT22;14792;50.886;6.468;2022-12-18T07:04:58;-6.10;99.90
27306;DHT22;14792;50.886;6.468;2022-12-18T07:07:59;-6.10;99.90
27306;DHT22;14792;50.886;6.468;2022-12-18T07:11:02;-6.10;99.90
27306;DHT22;14792;50.886;6.468;2022-12-18T07:14:02;-6.10;99.90
27306;DHT22;14792;50.886;6.468;2022-12-18T07:17:03;-6.10;99.90
27306;DHT22;14792;50.886;6.468;2022-12-18T07:20:05;-6.10;99.90
27306;DHT22;14792;50.886;6.468;2022-12-18T07:23:07;-6.10;99.90
27306;DHT22;14792;50.886;6.468;2022-12-18T07:26:10;-6.10;99.90
27306;DHT22;14792;50.886;6.468;2022-12-18T07:29:10;-6.20;99.90
27306;DHT22;14792;50.886;6.468;2022-12-18T07:32:11;-6.10;99.90
27306;DHT22;14792;50.886;6.468;2022-12-18T07:35:12;-6.10;99.90
27306;DHT22;14792;50.886;6.468;2022-12-18T07:38:14;-6.10;99.90
27306;DHT22;14792;50.886;6.468;2022-12-18T07:41:15;-6.10;99.90
27306;DHT22;14792;50.886;6.468;2022-12-18T07:44:17;-6.00;99.90
27306;DHT22;14792;50.886;6.468;2022-12-18T07:47:18;-6.00;99.90
27306;DHT22;14792;50.886;6.468;2022-12-18T07:50:20;-6.00;99.90
27306;DHT22;14792;50.886;6.468;2022-12-18T07:53:21;-6.00;99.90
27306;DHT22;14792;50.886;6.468;2022-12-18T07:56:22;-6.00;99.90
27306;DHT22;14792;50.886;6.468;2022-12-18T07:59:24;-6.00;99.90
27306;DHT22;14792;50.886;6.468;2022-12-18T08:02:25;-5.90;99.90
27306;DHT22;14792;50.886;6.468;2022-12-18T08:05:27;-5.90;99.90
27306;DHT22;14792;50.886;6.468;2022-12-18T08:08:28;-5.80;99.90
27306;DHT22;14792;50.886;6.468;2022-12-18T08:11:29;-5.80;99.90
27306;DHT22;14792;50.886;6.468;2022-12-18T08:14:31;-5.70;99.90
27306;DHT22;14792;50.886;6.468;2022-12-18T08:17:32;-5.70;99.90
27306;DHT22;14792;50.886;6.468;2022-12-18T08:20:34;-5.70;99.90
27306;DHT22;14792;50.886;6.468;2022-12-18T08:23:36;-5.60;99.90
27306;DHT22;14792;50.886;6.468;2022-12-18T08:26:39;-5.60;99.90
27306;DHT22;14792;50.886;6.468;2022-12-18T08:29:41;-5.50;99.90
27306;DHT22;14792;50.886;6.468;2022-12-18T08:32:42;-5.50;99.90
27306;DHT22;14792;50.886;6.468;2022-12-18T08:35:43;-5.40;99.90
27306;DHT22;14792;50.886;6.468;2022-12-18T08:38:45;-5.40;99.90
27306;DHT22;14792;50.886;6.468;2022-12-18T08:41:46;-5.40;99.90
27306;DHT22;14792;50.886;6.468;2022-12-18T08:44:48;-5.30;99.90
27306;DHT22;14792;50.886;6.468;2022-12-18T08:47:49;-5.10;99.90
27306;DHT22;14792;50.886;6.468;2022-12-18T08:50:57;-4.90;99.90
27306;DHT22;14792;50.886;6.468;2022-12-18T08:53:58;-4.80;99.90
27306;DHT22;14792;50.886;6.468;2022-12-18T08:57:00;-4.70;99.90
27306;DHT22;14792;50.886;6.468;2022-12-18T09:00:01;-4.60;99.90
27306;DHT22;14792;50.886;6.468;2022-12-18T09:03:03;-4.50;99.90
27306;DHT22;14792;50.886;6.468;2022-12-18T09:06:04;-4.50;99.90
27306;DHT22;14792;50.886;6.468;2022-12-18T09:09:06;-4.40;99.90
27306;DHT22;14792;50.886;6.468;2022-12-18T09:12:08;-4.40;99.90
27306;DHT22;14792;50.886;6.468;2022-12-18T09:15:09;-4.40;99.90
27306;DHT22;14792;50.886;6.468;2022-12-18T09:18:11;-4.20;99.90
27306;DHT22;14792;50.886;6.468;2022-12-18T09:21:17;-4.00;99.90
27306;DHT22;14792;50.886;6.468;2022-12-18T09:24:14;-4.00;99.90
27306;DHT22;14792;50.886;6.468;2022-12-18T09:27:15;-3.90;99.90
27306;DHT22;14792;50.886;6.468;2022-12-18T09:30:17;-3.80;99.90
27306;DHT22;14792;50.886;6.468;2022-12-18T09:33:18;-3.90;99.90
27306;DHT22;14792;50.886;6.468;2022-12-18T09:36:20;-3.80;99.90
27306;DHT22;14792;50.886;6.468;2022-12-18T09:39:22;-3.80;99.90
27306;DHT22;14792;50.886;6.468;2022-12-18T09:42:23;-3.80;99.90
27306;DHT22;14792;50.886;6.468;2022-12-18T09:45:25;-3.70;99.90
27306;DHT22;14792;50.886;6.468;2022-12-18T09:48:34;-3.70;99.90
27306;DHT22;14792;50.886;6.468;2022-12-18T09:51:38;-3.60;99.90
27306;DHT22;14792;50.886;6.468;2022-12-18T09:54:39;-3.60;99.90
27306;DHT22;14792;50.886;6.468;2022-12-18T09:57:42;-3.50;99.90
27306;DHT22;14792;50.886;6.468;2022-12-18T10:00:42;-3.40;99.90
27306;DHT22;14792;50.886;6.468;2022-12-18T10:03:43;-3.40;99.90
27306;DHT22;14792;50.886;6.468;2022-12-18T10:10:06;-3.10;99.90
27306;DHT22;14792;50.886;6.468;2022-12-18T10:16:17;-2.70;99.90
27306;DHT22;14792;50.886;6.468;2022-12-18T10:28:54;-2.40;99.90
27306;DHT22;14792;50.886;6.468;2022-12-18T10:31:56;-2.50;99.90
27306;DHT22;14792;50.886;6.468;2022-12-18T10:34:57;-2.50;99.90
27306;DHT22;14792;50.886;6.468;2022-12-18T10:38:06;-2.40;99.90
27306;DHT22;14792;50.886;6.468;2022-12-18T10:41:22;-2.30;99.90
27306;DHT22;14792;50.886;6.468;2022-12-18T10:44:23;-2.20;99.90
27306;DHT22;14792;50.886;6.468;2022-12-18T10:47:25;-2.30;99.90
27306;DHT22;14792;50.886;6.468;2022-12-18T10:50:33;-2.20;99.90
27306;DHT22;14792;50.886;6.468;2022-12-18T10:53:37;-2.10;99.90
27306;DHT22;14792;50.886;6.468;2022-12-18T10:56:39;-2.20;99.90
27306;DHT22;14792;50.886;6.468;2022-12-18T10:59:50;-2.10;99.90
27306;DHT22;14792;50.886;6.468;2022-12-18T11:02:51;-2.00;99.90
27306;DHT22;14792;50.886;6.468;2022-12-18T11:06:03;-1.90;99.90
27306;DHT22;14792;50.886;6.468;2022-12-18T11:09:04;-1.80;99.90
27306;DHT22;14792;50.886;6.468;2022-12-18T11:12:08;-1.80;99.90
27306;DHT22;14792;50.886;6.468;2022-12-18T11:15:13;-1.80;99.90
27306;DHT22;14792;50.886;6.468;2022-12-18T11:18:42;-1.70;99.90
27306;DHT22;14792;50.886;6.468;2022-12-18T11:21:16;-1.70;99.90
27306;DHT22;14792;50.886;6.468;2022-12-18T11:24:31;-1.80;99.90
27306;DHT22;14792;50.886;6.468;2022-12-18T11:27:31;-1.80;99.90
27306;DHT22;14792;50.886;6.468;2022-12-18T11:30:34;-1.80;99.90
27306;DHT22;14792;50.886;6.468;2022-12-18T11:33:34;-1.70;99.90
27306;DHT22;14792;50.886;6.468;2022-12-18T11:36:38;-1.60;99.90
27306;DHT22;14792;50.886;6.468;2022-12-18T11:39:44;-1.60;99.90
27306;DHT22;14792;50.886;6.468;2022-12-18T11:45:59;-1.60;99.90
27306;DHT22;14792;50.886;6.468;2022-12-18T11:49:01;-1.50;99.90
27306;DHT22;14792;50.886;6.468;2022-12-18T11:55:14;-1.50;99.90
27306;DHT22;14792;50.886;6.468;2022-12-18T12:01:47;-1.50;99.90
27306;DHT22;14792;50.886;6.468;2022-12-18T12:05:00;-1.40;99.90
27306;DHT22;14792;50.886;6.468;2022-12-18T12:08:15;-1.30;99.90
27306;DHT22;14792;50.886;6.468;2022-12-18T12:14:49;-1.30;99.90
27306;DHT22;14792;50.886;6.468;2022-12-18T12:21:18;-1.40;99.90
27306;DHT22;14792;50.886;6.468;2022-12-18T12:24:30;-1.30;99.90
27306;DHT22;14792;50.886;6.468;2022-12-18T12:40:22;-1.20;99.90
27306;DHT22;14792;50.886;6.468;2022-12-18T12:46:24;-1.10;99.90
27306;DHT22;14792;50.886;6.468;2022-12-18T12:49:27;-1.10;99.90
27306;DHT22;14792;50.886;6.468;2022-12-18T12:52:30;-1.00;99.90
27306;DHT22;14792;50.886;6.468;2022-12-18T12:55:29;-1.00;99.90
27306;DHT22;14792;50.886;6.468;2022-12-18T12:58:45;-1.00;99.90
27306;DHT22;14792;50.886;6.468;2022-12-18T13:01:55;-1.00;99.90
27306;DHT22;14792;50.886;6.468;2022-12-18T13:05:18;-1.00;99.90
27306;DHT22;14792;50.886;6.468;2022-12-18T13:08:24;-1.00;99.90
27306;DHT22;14792;50.886;6.468;2022-12-18T13:15:11;-1.00;99.90
27306;DHT22;14792;50.886;6.468;2022-12-18T13:21:23;-1.00;99.90
27306;DHT22;14792;50.886;6.468;2022-12-18T13:24:25;-1.00;99.90
27306;DHT22;14792;50.886;6.468;2022-12-18T13:30:57;-1.00;99.90
27306;DHT22;14792;50.886;6.468;2022-12-18T13:37:43;-0.90;99.90
27306;DHT22;14792;50.886;6.468;2022-12-18T13:43:51;-0.90;99.90
27306;DHT22;14792;50.886;6.468;2022-12-18T13:46:52;-0.90;99.90
27306;DHT22;14792;50.886;6.468;2022-12-18T13:49:54;-0.90;99.90
27306;DHT22;14792;50.886;6.468;2022-12-18T13:52:56;-1.00;99.90
27306;DHT22;14792;50.886;6.468;2022-12-18T13:55:57;-1.00;99.90
27306;DHT22;14792;50.886;6.468;2022-12-18T14:02:25;-1.00;99.90
27306;DHT22;14792;50.886;6.468;2022-12-18T14:05:32;-1.00;99.90
27306;DHT22;14792;50.886;6.468;2022-12-18T14:08:42;-0.90;99.90
27306;DHT22;14792;50.886;6.468;2022-12-18T14:11:36;-0.90;99.90
27306;DHT22;14792;50.886;6.468;2022-12-18T14:14:38;-0.90;99.90
27306;DHT22;14792;50.886;6.468;2022-12-18T14:17:39;-1.00;99.90
27306;DHT22;14792;50.886;6.468;2022-12-18T14:20:43;-1.00;99.90
27306;DHT22;14792;50.886;6.468;2022-12-18T14:23:43;-1.00;99.90
27306;DHT22;14792;50.886;6.468;2022-12-18T14:26:44;-1.00;99.90
27306;DHT22;14792;50.886;6.468;2022-12-18T14:29:46;-1.00;99.90
27306;DHT22;14792;50.886;6.468;2022-12-18T14:32:59;-1.10;99.90
27306;DHT22;14792;50.886;6.468;2022-12-18T14:35:59;-1.10;99.90
27306;DHT22;14792;50.886;6.468;2022-12-18T14:38:59;-1.10;99.90
27306;DHT22;14792;50.886;6.468;2022-12-18T14:42:01;-1.10;99.90
27306;DHT22;14792;50.886;6.468;2022-12-18T14:45:34;-1.20;99.90
27306;DHT22;14792;50.886;6.468;2022-12-18T14:48:41;-1.20;99.90
27306;DHT22;14792;50.886;6.468;2022-12-18T14:51:42;-1.20;99.90
27306;DHT22;14792;50.886;6.468;2022-12-18T14:54:45;-1.30;99.90
27306;DHT22;14792;50.886;6.468;2022-12-18T14:57:45;-1.30;99.90
27306;DHT22;14792;50.886;6.468;2022-12-18T15:00:46;-1.30;99.90
27306;DHT22;14792;50.886;6.468;2022-12-18T15:03:48;-1.30;99.90
27306;DHT22;14792;50.886;6.468;2022-12-18T15:06:50;-1.40;99.90
27306;DHT22;14792;50.886;6.468;2022-12-18T15:10:15;-1.40;99.90
27306;DHT22;14792;50.886;6.468;2022-12-18T15:13:22;-1.40;99.90
27306;DHT22;14792;50.886;6.468;2022-12-18T15:16:22;-1.50;99.90
27306;DHT22;14792;50.886;6.468;2022-12-18T15:19:43;-1.50;99.90
27306;DHT22;14792;50.886;6.468;2022-12-18T15:22:29;-1.50;99.90
27306;DHT22;14792;50.886;6.468;2022-12-18T15:25:39;-1.60;99.90
27306;DHT22;14792;50.886;6.468;2022-12-18T15:28:53;-1.60;99.90
27306;DHT22;14792;50.886;6.468;2022-12-18T15:32:04;-1.60;99.90
27306;DHT22;14792;50.886;6.468;2022-12-18T15:38:12;-1.70;99.90
27306;DHT22;14792;50.886;6.468;2022-12-18T15:41:18;-1.60;99.90
27306;DHT22;14792;50.886;6.468;2022-12-18T15:44:22;-1.70;99.90
27306;DHT22;14792;50.886;6.468;2022-12-18T15:47:22;-1.70;99.90
27306;DHT22;14792;50.886;6.468;2022-12-18T15:50:24;-1.80;99.90
27306;DHT22;14792;50.886;6.468;2022-12-18T15:53:27;-1.80;99.90
27306;DHT22;14792;50.886;6.468;2022-12-18T15:56:27;-1.80;99.90
27306;DHT22;14792;50.886;6.468;2022-12-18T15:59:47;-1.70;99.90
27306;DHT22;14792;50.886;6.468;2022-12-18T16:02:48;-1.70;99.90
27306;DHT22;14792;50.886;6.468;2022-12-18T16:05:50;-1.70;99.90
27306;DHT22;14792;50.886;6.468;2022-12-18T16:08:52;-1.70;99.90
27306;DHT22;14792;50.886;6.468;2022-12-18T16:11:53;-1.70;99.90
27306;DHT22;14792;50.886;6.468;2022-12-18T16:14:55;-1.70;99.90
27306;DHT22;14792;50.886;6.468;2022-12-18T16:17:56;-1.60;99.90
27306;DHT22;14792;50.886;6.468;2022-12-18T16:20:58;-1.60;99.90
27306;DHT22;14792;50.886;6.468;2022-12-18T16:24:00;-1.60;99.90
27306;DHT22;14792;50.886;6.468;2022-12-18T16:27:01;-1.60;99.90
27306;DHT22;14792;50.886;6.468;2022-12-18T16:30:03;-1.60;99.90
27306;DHT22;14792;50.886;6.468;2022-12-18T16:33:05;-1.60;99.90
27306;DHT22;14792;50.886;6.468;2022-12-18T16:36:09;-1.60;99.90
27306;DHT22;14792;50.886;6.468;2022-12-18T16:39:11;-1.60;99.90
27306;DHT22;14792;50.886;6.468;2022-12-18T16:42:17;-1.60;99.90
27306;DHT22;14792;50.886;6.468;2022-12-18T16:45:15;-1.60;99.90
27306;DHT22;14792;50.886;6.468;2022-12-18T16:48:15;-1.60;99.90
27306;DHT22;14792;50.886;6.468;2022-12-18T16:51:17;-1.60;99.90
27306;DHT22;14792;50.886;6.468;2022-12-18T16:54:19;-1.60;99.90
27306;DHT22;14792;50.886;6.468;2022-12-18T16:57:20;-1.60;99.90
27306;DHT22;14792;50.886;6.468;2022-12-18T17:00:24;-1.60;99.90
27306;DHT22;14792;50.886;6.468;2022-12-18T17:03:25;-1.70;99.90
27306;DHT22;14792;50.886;6.468;2022-12-18T17:06:27;-1.60;99.90
27306;DHT22;14792;50.886;6.468;2022-12-18T17:09:28;-1.60;99.90
27306;DHT22;14792;50.886;6.468;2022-12-18T17:12:30;-1.60;99.90
27306;DHT22;14792;50.886;6.468;2022-12-18T17:15:34;-1.60;99.90
27306;DHT22;14792;50.886;6.468;2022-12-18T17:18:36;-1.70;99.90
27306;DHT22;14792;50.886;6.468;2022-12-18T17:21:37;-1.70;99.90
27306;DHT22;14792;50.886;6.468;2022-12-18T17:24:39;-1.70;99.90
27306;DHT22;14792;50.886;6.468;2022-12-18T17:27:41;-1.60;99.90
27306;DHT22;14792;50.886;6.468;2022-12-18T17:30:42;-1.70;99.90
27306;DHT22;14792;50.886;6.468;2022-12-18T17:33:44;-1.70;99.90
27306;DHT22;14792;50.886;6.468;2022-12-18T17:36:45;-1.70;99.90
27306;DHT22;14792;50.886;6.468;2022-12-18T17:39:47;-1.70;99.90
27306;DHT22;14792;50.886;6.468;2022-12-18T17:42:51;-1.60;99.90
27306;DHT22;14792;50.886;6.468;2022-12-18T17:45:50;-1.60;99.90
27306;DHT22;14792;50.886;6.468;2022-12-18T17:48:54;-1.70;99.90
27306;DHT22;14792;50.886;6.468;2022-12-18T17:51:53;-1.60;99.90
27306;DHT22;14792;50.886;6.468;2022-12-18T17:54:55;-1.60;99.90
27306;DHT22;14792;50.886;6.468;2022-12-18T17:57:57;-1.60;99.90
27306;DHT22;14792;50.886;6.468;2022-12-18T18:00:58;-1.60;99.90
27306;DHT22;14792;50.886;6.468;2022-12-18T18:04:00;-1.60;99.90
27306;DHT22;14792;50.886;6.468;2022-12-18T18:07:01;-1.60;99.90
27306;DHT22;14792;50.886;6.468;2022-12-18T18:10:03;-1.60;99.90
27306;DHT22;14792;50.886;6.468;2022-12-18T18:13:05;-1.60;99.90
27306;DHT22;14792;50.886;6.468;2022-12-18T18:16:24;-1.50;99.90
27306;DHT22;14792;50.886;6.468;2022-12-18T18:19:26;-1.50;99.90
27306;DHT22;14792;50.886;6.468;2022-12-18T18:22:27;-1.50;99.90
27306;DHT22;14792;50.886;6.468;2022-12-18T18:25:29;-1.50;99.90
27306;DHT22;14792;50.886;6.468;2022-12-18T18:28:31;-1.50;99.90
27306;DHT22;14792;50.886;6.468;2022-12-18T18:31:32;-1.40;99.90
27306;DHT22;14792;50.886;6.468;2022-12-18T18:34:34;-1.40;99.90
27306;DHT22;14792;50.886;6.468;2022-12-18T18:37:37;-1.40;99.90
27306;DHT22;14792;50.886;6.468;2022-12-18T18:40:38;-1.40;99.90
27306;DHT22;14792;50.886;6.468;2022-12-18T18:43:40;-1.40;99.90
27306;DHT22;14792;50.886;6.468;2022-12-18T18:46:42;-1.40;99.90
27306;DHT22;14792;50.886;6.468;2022-12-18T18:49:43;-1.40;99.90
27306;DHT22;14792;50.886;6.468;2022-12-18T18:52:45;-1.40;99.90
27306;DHT22;14792;50.886;6.468;2022-12-18T18:55:46;-1.40;99.90
27306;DHT22;14792;50.886;6.468;2022-12-18T18:58:48;-1.50;99.90
27306;DHT22;14792;50.886;6.468;2022-12-18T19:01:50;-1.50;99.90
27306;DHT22;14792;50.886;6.468;2022-12-18T19:04:51;-1.40;99.90
27306;DHT22;14792;50.886;6.468;2022-12-18T19:07:54;-1.40;99.90
27306;DHT22;14792;50.886;6.468;2022-12-18T19:10:55;-1.40;99.90
27306;DHT22;14792;50.886;6.468;2022-12-18T19:13:57;-1.40;99.90
27306;DHT22;14792;50.886;6.468;2022-12-18T19:16:58;-1.40;99.90
27306;DHT22;14792;50.886;6.468;2022-12-18T19:19:59;-1.40;99.90
27306;DHT22;14792;50.886;6.468;2022-12-18T19:23:01;-1.30;99.90
27306;DHT22;14792;50.886;6.468;2022-12-18T19:26:03;-1.40;99.90
27306;DHT22;14792;50.886;6.468;2022-12-18T19:29:05;-1.40;99.90
27306;DHT22;14792;50.886;6.468;2022-12-18T19:32:06;-1.40;99.90
27306;DHT22;14792;50.886;6.468;2022-12-18T19:35:10;-1.30;99.90
27306;DHT22;14792;50.886;6.468;2022-12-18T19:38:12;-1.30;99.90
27306;DHT22;14792;50.886;6.468;2022-12-18T19:41:14;-1.30;99.90
27306;DHT22;14792;50.886;6.468;2022-12-18T19:44:16;-1.20;99.90
27306;DHT22;14792;50.886;6.468;2022-12-18T19:47:17;-1.30;99.90
27306;DHT22;14792;50.886;6.468;2022-12-18T19:50:18;-1.20;99.90
27306;DHT22;14792;50.886;6.468;2022-12-18T19:53:20;-1.10;99.90
27306;DHT22;14792;50.886;6.468;2022-12-18T19:56:22;-1.10;99.90
27306;DHT22;14792;50.886;6.468;2022-12-18T19:59:23;-1.10;99.90
27306;DHT22;14792;50.886;6.468;2022-12-18T20:02:24;-1.00;99.90
27306;DHT22;14792;50.886;6.468;2022-12-18T20:05:26;-1.00;99.90
27306;DHT22;14792;50.886;6.468;2022-12-18T20:08:28;-1.00;99.90
27306;DHT22;14792;50.886;6.468;2022-12-18T20:11:30;-1.00;99.90
27306;DHT22;14792;50.886;6.468;2022-12-18T20:14:31;-1.00;99.90
27306;DHT22;14792;50.886;6.468;2022-12-18T20:17:32;-1.00;99.90
27306;DHT22;14792;50.886;6.468;2022-12-18T20:20:34;-1.00;99.90
27306;DHT22;14792;50.886;6.468;2022-12-18T20:23:37;-1.00;99.90
27306;DHT22;14792;50.886;6.468;2022-12-18T20:26:39;-1.00;99.90
27306;DHT22;14792;50.886;6.468;2022-12-18T20:29:41;-1.00;99.90
27306;DHT22;14792;50.886;6.468;2022-12-18T20:32:42;-1.00;99.90
27306;DHT22;14792;50.886;6.468;2022-12-18T20:35:44;-1.00;99.90
27306;DHT22;14792;50.886;6.468;2022-12-18T20:38:45;-1.00;99.90
27306;DHT22;14792;50.886;6.468;2022-12-18T20:41:47;-1.00;99.90